sensor_id;sensor_type;location;lat;lon;timestamp;P1;durP1;ratioP1;P2;durP2;ratioP2
28447;SDS011;15675;52.870;-1.416;2023-04-06T00:00:55;47.10;;;24.58;;
28447;SDS011;15675;52.870;-1.416;2023-04-06T00:03:21;51.45;;;26.02;;
28447;SDS011;15675;52.870;-1.416;2023-04-06T00:05:46;46.15;;;24.55;;
28447;SDS011;15675;52.870;-1.416;2023-04-06T00:08:12;49.63;;;24.55;;
28447;SDS011;15675;52.870;-1.416;2023-04-06T00:10:38;47.38;;;24.05;;
28447;SDS011;15675;52.870;-1.416;2023-04-06T00:13:04;49.13;;;23.77;;
28447;SDS011;15675;52.870;-1.416;2023-04-06T00:15:31;49.13;;;24.20;;
28447;SDS011;15675;52.870;-1.416;2023-04-06T00:17:56;48.47;;;22.27;;
28447;SDS011;15675;52.870;-1.416;2023-04-06T00:20:22;50.63;;;24.35;;
28447;SDS011;15675;52.870;-1.416;2023-04-06T00:22:47;54.22;;;25.98;;
28447;SDS011;15675;52.870;-1.416;2023-04-06T00:25:13;49.92;;;24.02;;
28447;SDS011;15675;52.870;-1.416;2023-04-06T00:27:40;54.15;;;25.67;;
28447;SDS011;15675;52.870;-1.416;2023-04-06T00:30:06;49.92;;;25.35;;
28447;SDS011;15675;52.870;-1.416;2023-04-06T00:32:33;48.33;;;23.60;;
28447;SDS011;15675;52.870;-1.416;2023-04-06T00:35:01;51.90;;;25.02;;
28447;SDS011;15675;52.870;-1.416;2023-04-06T00:37:30;50.03;;;24.75;;
28447;SDS011;15675;52.870;-1.416;2023-04-06T00:39:55;50.85;;;24.52;;
28447;SDS011;15675;52.870;-1.416;2023-04-06T00:42:21;50.88;;;24.00;;
28447;SDS011;15675;52.870;-1.416;2023-04-06T00:44:54;50.15;;;24.10;;
28447;SDS011;15675;52.870;-1.416;2023-04-06T00:47:21;48.80;;;23.90;;
28447;SDS011;15675;52.870;-1.416;2023-04-06T00:49:48;47.47;;;23.98;;
28447;SDS011;15675;52.870;-1.416;2023-04-06T00:52:13;56.17;;;25.13;;
28447;SDS011;15675;52.870;-1.416;2023-04-06T00:54:39;49.90;;;24.42;;
28447;SDS011;15675;52.870;-1.416;2023-04-06T00:57:05;50.03;;;24.70;;
28447;SDS011;15675;52.870;-1.416;2023-04-06T00:59:31;52.95;;;24.48;;
28447;SDS011;15675;52.870;-1.416;2023-04-06T01:01:57;52.05;;;25.08;;
28447;SDS011;15675;52.870;-1.416;2023-04-06T01:04:22;49.50;;;24.05;;
28447;SDS011;15675;52.870;-1.416;2023-04-06T01:06:49;47.72;;;24.30;;
28447;SDS011;15675;52.870;-1.416;2023-04-06T01:09:15;48.03;;;23.30;;
28447;SDS011;15675;52.870;-1.416;2023-04-06T01:11:42;42.88;;;21.45;;
28447;SDS011;15675;52.870;-1.416;2023-04-06T01:14:07;38.88;;;19.90;;
28447;SDS011;15675;52.870;-1.416;2023-04-06T01:16:33;38.47;;;20.67;;
28447;SDS011;15675;52.870;-1.416;2023-04-06T01:18:59;37.58;;;20.92;;
28447;SDS011;15675;52.870;-1.416;2023-04-06T01:21:24;38.70;;;20.95;;
28447;SDS011;15675;52.870;-1.416;2023-04-06T01:23:50;41.33;;;20.83;;
28447;SDS011;15675;52.870;-1.416;2023-04-06T01:26:16;40.83;;;19.80;;
28447;SDS011;15675;52.870;-1.416;2023-04-06T01:28:42;38.90;;;20.55;;
28447;SDS011;15675;52.870;-1.416;2023-04-06T01:31:09;41.47;;;20.27;;
28447;SDS011;15675;52.870;-1.416;2023-04-06T01:33:35;37.65;;;19.40;;
28447;SDS011;15675;52.870;-1.416;2023-04-06T01:36:01;37.63;;;19.33;;
28447;SDS011;15675;52.870;-1.416;2023-04-06T01:38:27;37.95;;;19.33;;
28447;SDS011;15675;52.870;-1.416;2023-04-06T01:40:53;35.80;;;19.63;;
28447;SDS011;15675;52.870;-1.416;2023-04-06T01:43:19;37.35;;;20.67;;
28447;SDS011;15675;52.870;-1.416;2023-04-06T01:45:44;38.50;;;19.65;;
28447;SDS011;15675;52.870;-1.416;2023-04-06T01:48:10;35.45;;;18.33;;
28447;SDS011;15675;52.870;-1.416;2023-04-06T01:50:35;38.80;;;20.00;;
28447;SDS011;15675;52.870;-1.416;2023-04-06T01:53:01;35.63;;;19.02;;
28447;SDS011;15675;52.870;-1.416;2023-04-06T01:55:26;34.50;;;18.50;;
28447;SDS011;15675;52.870;-1.416;2023-04-06T01:57:52;33.60;;;18.98;;
28447;SDS011;15675;52.870;-1.416;2023-04-06T02:00:17;37.20;;;18.67;;
28447;SDS011;15675;52.870;-1.416;2023-04-06T02:02:43;34.25;;;18.70;;
28447;SDS011;15675;52.870;-1.416;2023-04-06T02:05:09;38.53;;;19.52;;
28447;SDS011;15675;52.870;-1.416;2023-04-06T02:07:35;41.53;;;20.83;;
28447;SDS011;15675;52.870;-1.416;2023-04-06T02:10:00;39.30;;;20.15;;
28447;SDS011;15675;52.870;-1.416;2023-04-06T02:12:26;38.03;;;19.83;;
28447;SDS011;15675;52.870;-1.416;2023-04-06T02:14:51;34.58;;;19.30;;
28447;SDS011;15675;52.870;-1.416;2023-04-06T02:17:17;34.33;;;19.63;;
28447;SDS011;15675;52.870;-1.416;2023-04-06T02:19:43;41.25;;;21.00;;
28447;SDS011;15675;52.870;-1.416;2023-04-06T02:22:09;38.70;;;20.60;;
28447;SDS011;15675;52.870;-1.416;2023-04-06T02:24:34;38.75;;;20.77;;
28447;SDS011;15675;52.870;-1.416;2023-04-06T02:27:00;38.03;;;20.88;;
28447;SDS011;15675;52.870;-1.416;2023-04-06T02:29:26;34.15;;;19.10;;
28447;SDS011;15675;52.870;-1.416;2023-04-06T02:31:51;35.35;;;19.70;;
28447;SDS011;15675;52.870;-1.416;2023-04-06T02:34:17;36.80;;;19.27;;
28447;SDS011;15675;52.870;-1.416;2023-04-06T02:36:46;36.20;;;20.02;;
28447;SDS011;15675;52.870;-1.416;2023-04-06T02:39:12;36.38;;;19.52;;
28447;SDS011;15675;52.870;-1.416;2023-04-06T02:41:38;35.65;;;18.90;;
28447;SDS011;15675;52.870;-1.416;2023-04-06T02:44:06;38.70;;;20.33;;
28447;SDS011;15675;52.870;-1.416;2023-04-06T02:46:33;38.40;;;20.08;;
28447;SDS011;15675;52.870;-1.416;2023-04-06T02:48:59;38.22;;;20.67;;
28447;SDS011;15675;52.870;-1.416;2023-04-06T02:51:26;39.30;;;19.65;;
28447;SDS011;15675;52.870;-1.416;2023-04-06T02:53:52;36.97;;;20.02;;
28447;SDS011;15675;52.870;-1.416;2023-04-06T02:56:18;37.58;;;19.40;;
28447;SDS011;15675;52.870;-1.416;2023-04-06T02:58:44;43.00;;;20.90;;
28447;SDS011;15675;52.870;-1.416;2023-04-06T03:01:09;41.35;;;21.73;;
28447;SDS011;15675;52.870;-1.416;2023-04-06T03:03:36;37.28;;;19.95;;
28447;SDS011;15675;52.870;-1.416;2023-04-06T03:06:01;41.75;;;20.58;;
28447;SDS011;15675;52.870;-1.416;2023-04-06T03:08:28;36.67;;;20.08;;
28447;SDS011;15675;52.870;-1.416;2023-04-06T03:10:53;38.28;;;19.20;;
28447;SDS011;15675;52.870;-1.416;2023-04-06T03:13:20;39.17;;;21.05;;
28447;SDS011;15675;52.870;-1.416;2023-04-06T03:15:45;39.55;;;20.55;;
28447;SDS011;15675;52.870;-1.416;2023-04-06T03:18:11;44.45;;;22.08;;
28447;SDS011;15675;52.870;-1.416;2023-04-06T03:20:37;41.45;;;22.42;;
28447;SDS011;15675;52.870;-1.416;2023-04-06T03:23:02;41.08;;;20.48;;
28447;SDS011;15675;52.870;-1.416;2023-04-06T03:25:28;38.25;;;20.27;;
28447;SDS011;15675;52.870;-1.416;2023-04-06T03:27:55;40.40;;;22.02;;
28447;SDS011;15675;52.870;-1.416;2023-04-06T03:30:21;38.58;;;20.83;;
28447;SDS011;15675;52.870;-1.416;2023-04-06T03:32:46;39.38;;;20.80;;
28447;SDS011;15675;52.870;-1.416;2023-04-06T03:35:12;43.35;;;22.95;;
28447;SDS011;15675;52.870;-1.416;2023-04-06T03:37:37;43.28;;;21.85;;
28447;SDS011;15675;52.870;-1.416;2023-04-06T03:40:04;44.42;;;23.25;;
28447;SDS011;15675;52.870;-1.416;2023-04-06T03:42:30;46.83;;;23.08;;
28447;SDS011;15675;52.870;-1.416;2023-04-06T03:44:56;45.63;;;21.85;;
28447;SDS011;15675;52.870;-1.416;2023-04-06T03:47:21;44.53;;;23.30;;
28447;SDS011;15675;52.870;-1.416;2023-04-06T03:49:47;43.22;;;22.40;;
28447;SDS011;15675;52.870;-1.416;2023-04-06T03:52:12;42.72;;;21.98;;
28447;SDS011;15675;52.870;-1.416;2023-04-06T03:54:38;41.08;;;22.85;;
28447;SDS011;15675;52.870;-1.416;2023-04-06T03:57:03;42.85;;;21.55;;
28447;SDS011;15675;52.870;-1.416;2023-04-06T03:59:29;39.90;;;20.67;;
28447;SDS011;15675;52.870;-1.416;2023-04-06T04:01:55;40.88;;;22.55;;
28447;SDS011;15675;52.870;-1.416;2023-04-06T04:04:20;42.58;;;22.17;;
28447;SDS011;15675;52.870;-1.416;2023-04-06T04:06:46;43.47;;;21.85;;
28447;SDS011;15675;52.870;-1.416;2023-04-06T04:09:12;38.85;;;20.83;;
28447;SDS011;15675;52.870;-1.416;2023-04-06T04:11:37;38.13;;;20.77;;
28447;SDS011;15675;52.870;-1.416;2023-04-06T04:14:03;43.70;;;22.92;;
28447;SDS011;15675;52.870;-1.416;2023-04-06T04:16:29;47.08;;;22.65;;
28447;SDS011;15675;52.870;-1.416;2023-04-06T04:18:54;42.88;;;21.90;;
28447;SDS011;15675;52.870;-1.416;2023-04-06T04:21:20;39.78;;;21.17;;
28447;SDS011;15675;52.870;-1.416;2023-04-06T04:23:45;43.13;;;21.67;;
28447;SDS011;15675;52.870;-1.416;2023-04-06T04:26:11;39.47;;;21.48;;
28447;SDS011;15675;52.870;-1.416;2023-04-06T04:28:37;43.20;;;21.52;;
28447;SDS011;15675;52.870;-1.416;2023-04-06T04:31:02;38.35;;;19.55;;
28447;SDS011;15675;52.870;-1.416;2023-04-06T04:33:28;37.50;;;21.80;;
28447;SDS011;15675;52.870;-1.416;2023-04-06T04:35:53;40.10;;;20.35;;
28447;SDS011;15675;52.870;-1.416;2023-04-06T04:38:19;39.97;;;21.10;;
28447;SDS011;15675;52.870;-1.416;2023-04-06T04:40:45;38.90;;;20.67;;
28447;SDS011;15675;52.870;-1.416;2023-04-06T04:43:10;37.97;;;20.83;;
28447;SDS011;15675;52.870;-1.416;2023-04-06T04:45:36;40.35;;;21.25;;
28447;SDS011;15675;52.870;-1.416;2023-04-06T04:48:01;46.03;;;22.35;;
28447;SDS011;15675;52.870;-1.416;2023-04-06T04:50:27;41.80;;;21.02;;
28447;SDS011;15675;52.870;-1.416;2023-04-06T04:52:52;44.58;;;22.02;;
28447;SDS011;15675;52.870;-1.416;2023-04-06T04:55:18;48.35;;;21.85;;
28447;SDS011;15675;52.870;-1.416;2023-04-06T04:57:44;45.78;;;22.48;;
28447;SDS011;15675;52.870;-1.416;2023-04-06T05:00:09;42.50;;;21.20;;
28447;SDS011;15675;52.870;-1.416;2023-04-06T05:02:35;46.75;;;22.85;;
28447;SDS011;15675;52.870;-1.416;2023-04-06T05:05:01;49.63;;;21.48;;
28447;SDS011;15675;52.870;-1.416;2023-04-06T05:07:26;46.13;;;21.63;;
28447;SDS011;15675;52.870;-1.416;2023-04-06T05:09:52;43.60;;;20.77;;
28447;SDS011;15675;52.870;-1.416;2023-04-06T05:12:18;43.67;;;22.35;;
28447;SDS011;15675;52.870;-1.416;2023-04-06T05:14:44;41.08;;;20.27;;
28447;SDS011;15675;52.870;-1.416;2023-04-06T05:17:10;41.92;;;20.80;;
28447;SDS011;15675;52.870;-1.416;2023-04-06T05:19:35;50.38;;;23.63;;
28447;SDS011;15675;52.870;-1.416;2023-04-06T05:22:01;58.05;;;24.33;;
28447;SDS011;15675;52.870;-1.416;2023-04-06T05:24:26;47.65;;;22.50;;
28447;SDS011;15675;52.870;-1.416;2023-04-06T05:26:52;47.53;;;22.58;;
28447;SDS011;15675;52.870;-1.416;2023-04-06T05:29:17;45.03;;;22.08;;
28447;SDS011;15675;52.870;-1.416;2023-04-06T05:31:43;50.53;;;21.90;;
28447;SDS011;15675;52.870;-1.416;2023-04-06T05:34:09;52.80;;;22.55;;
28447;SDS011;15675;52.870;-1.416;2023-04-06T05:36:35;49.10;;;22.70;;
28447;SDS011;15675;52.870;-1.416;2023-04-06T05:39:01;49.88;;;23.13;;
28447;SDS011;15675;52.870;-1.416;2023-04-06T05:41:27;48.33;;;23.58;;
28447;SDS011;15675;52.870;-1.416;2023-04-06T05:43:52;43.78;;;20.60;;
28447;SDS011;15675;52.870;-1.416;2023-04-06T05:46:18;51.08;;;23.40;;
28447;SDS011;15675;52.870;-1.416;2023-04-06T05:48:44;47.28;;;22.63;;
28447;SDS011;15675;52.870;-1.416;2023-04-06T05:51:10;48.20;;;21.45;;
28447;SDS011;15675;52.870;-1.416;2023-04-06T05:53:35;45.65;;;21.88;;
28447;SDS011;15675;52.870;-1.416;2023-04-06T05:56:01;49.83;;;23.50;;
28447;SDS011;15675;52.870;-1.416;2023-04-06T05:58:28;46.35;;;21.73;;
28447;SDS011;15675;52.870;-1.416;2023-04-06T06:01:00;45.35;;;21.52;;
28447;SDS011;15675;52.870;-1.416;2023-04-06T06:03:26;49.63;;;21.10;;
28447;SDS011;15675;52.870;-1.416;2023-04-06T06:05:51;40.65;;;20.60;;
28447;SDS011;15675;52.870;-1.416;2023-04-06T06:08:17;37.90;;;19.67;;
28447;SDS011;15675;52.870;-1.416;2023-04-06T06:10:43;44.28;;;21.70;;
28447;SDS011;15675;52.870;-1.416;2023-04-06T06:13:08;40.50;;;20.85;;
28447;SDS011;15675;52.870;-1.416;2023-04-06T06:15:34;41.25;;;20.95;;
28447;SDS011;15675;52.870;-1.416;2023-04-06T06:18:00;40.72;;;19.83;;
28447;SDS011;15675;52.870;-1.416;2023-04-06T06:20:25;41.75;;;20.35;;
28447;SDS011;15675;52.870;-1.416;2023-04-06T06:22:51;38.13;;;20.38;;
28447;SDS011;15675;52.870;-1.416;2023-04-06T06:25:17;39.15;;;20.65;;
28447;SDS011;15675;52.870;-1.416;2023-04-06T06:27:43;37.28;;;19.00;;
28447;SDS011;15675;52.870;-1.416;2023-04-06T06:30:09;40.55;;;19.98;;
28447;SDS011;15675;52.870;-1.416;2023-04-06T06:32:35;39.15;;;19.73;;
28447;SDS011;15675;52.870;-1.416;2023-04-06T06:35:00;37.75;;;19.67;;
28447;SDS011;15675;52.870;-1.416;2023-04-06T06:37:26;40.92;;;19.90;;
28447;SDS011;15675;52.870;-1.416;2023-04-06T06:39:51;34.15;;;17.77;;
28447;SDS011;15675;52.870;-1.416;2023-04-06T06:42:17;33.42;;;17.40;;
28447;SDS011;15675;52.870;-1.416;2023-04-06T06:44:42;33.38;;;16.92;;
28447;SDS011;15675;52.870;-1.416;2023-04-06T06:47:08;34.35;;;16.30;;
28447;SDS011;15675;52.870;-1.416;2023-04-06T06:49:33;34.13;;;16.80;;
28447;SDS011;15675;52.870;-1.416;2023-04-06T06:51:59;33.33;;;16.55;;
28447;SDS011;15675;52.870;-1.416;2023-04-06T06:54:25;27.40;;;15.00;;
28447;SDS011;15675;52.870;-1.416;2023-04-06T06:56:50;28.85;;;15.50;;
28447;SDS011;15675;52.870;-1.416;2023-04-06T06:59:16;30.58;;;14.40;;
28447;SDS011;15675;52.870;-1.416;2023-04-06T07:01:41;33.58;;;15.65;;
28447;SDS011;15675;52.870;-1.416;2023-04-06T07:04:07;28.05;;;14.50;;
28447;SDS011;15675;52.870;-1.416;2023-04-06T07:06:35;26.48;;;13.90;;
28447;SDS011;15675;52.870;-1.416;2023-04-06T07:09:01;24.75;;;13.32;;
28447;SDS011;15675;52.870;-1.416;2023-04-06T07:11:28;25.45;;;14.02;;
28447;SDS011;15675;52.870;-1.416;2023-04-06T07:13:55;25.80;;;13.18;;
28447;SDS011;15675;52.870;-1.416;2023-04-06T07:16:21;25.85;;;12.45;;
28447;SDS011;15675;52.870;-1.416;2023-04-06T07:18:47;24.05;;;12.50;;
28447;SDS011;15675;52.870;-1.416;2023-04-06T07:21:12;28.63;;;13.13;;
28447;SDS011;15675;52.870;-1.416;2023-04-06T07:23:38;28.75;;;14.55;;
28447;SDS011;15675;52.870;-1.416;2023-04-06T07:26:04;27.00;;;14.25;;
28447;SDS011;15675;52.870;-1.416;2023-04-06T07:28:29;29.25;;;14.68;;
28447;SDS011;15675;52.870;-1.416;2023-04-06T07:30:55;26.30;;;15.00;;
28447;SDS011;15675;52.870;-1.416;2023-04-06T07:33:20;25.13;;;13.82;;
28447;SDS011;15675;52.870;-1.416;2023-04-06T07:35:47;25.58;;;14.75;;
28447;SDS011;15675;52.870;-1.416;2023-04-06T07:38:13;26.75;;;14.95;;
28447;SDS011;15675;52.870;-1.416;2023-04-06T07:40:39;28.23;;;14.77;;
28447;SDS011;15675;52.870;-1.416;2023-04-06T07:43:05;28.90;;;15.57;;
28447;SDS011;15675;52.870;-1.416;2023-04-06T07:45:31;31.35;;;15.85;;
28447;SDS011;15675;52.870;-1.416;2023-04-06T07:47:56;30.98;;;15.02;;
28447;SDS011;15675;52.870;-1.416;2023-04-06T07:50:22;30.95;;;16.17;;
28447;SDS011;15675;52.870;-1.416;2023-04-06T07:52:47;30.23;;;15.65;;
28447;SDS011;15675;52.870;-1.416;2023-04-06T07:55:13;31.55;;;15.88;;
28447;SDS011;15675;52.870;-1.416;2023-04-06T07:57:39;26.33;;;15.20;;
28447;SDS011;15675;52.870;-1.416;2023-04-06T08:00:05;25.75;;;13.60;;
28447;SDS011;15675;52.870;-1.416;2023-04-06T08:02:31;25.70;;;14.57;;
28447;SDS011;15675;52.870;-1.416;2023-04-06T08:04:57;24.98;;;14.35;;
28447;SDS011;15675;52.870;-1.416;2023-04-06T08:07:22;17.55;;;10.68;;
28447;SDS011;15675;52.870;-1.416;2023-04-06T08:09:48;23.23;;;10.82;;
28447;SDS011;15675;52.870;-1.416;2023-04-06T08:12:14;17.48;;;10.32;;
28447;SDS011;15675;52.870;-1.416;2023-04-06T08:14:39;20.42;;;10.15;;
28447;SDS011;15675;52.870;-1.416;2023-04-06T08:17:05;17.65;;;9.15;;
28447;SDS011;15675;52.870;-1.416;2023-04-06T08:19:30;12.77;;;7.78;;
28447;SDS011;15675;52.870;-1.416;2023-04-06T08:21:56;12.23;;;6.25;;
28447;SDS011;15675;52.870;-1.416;2023-04-06T08:24:22;7.90;;;5.30;;
28447;SDS011;15675;52.870;-1.416;2023-04-06T08:26:47;6.65;;;3.92;;
28447;SDS011;15675;52.870;-1.416;2023-04-06T08:29:13;9.15;;;3.88;;
28447;SDS011;15675;52.870;-1.416;2023-04-06T08:31:38;10.57;;;4.13;;
28447;SDS011;15675;52.870;-1.416;2023-04-06T08:34:04;9.68;;;3.53;;
28447;SDS011;15675;52.870;-1.416;2023-04-06T08:36:30;9.05;;;3.40;;
28447;SDS011;15675;52.870;-1.416;2023-04-06T08:38:56;10.98;;;3.80;;
28447;SDS011;15675;52.870;-1.416;2023-04-06T08:41:22;11.13;;;4.53;;
28447;SDS011;15675;52.870;-1.416;2023-04-06T08:43:58;8.35;;;3.20;;
28447;SDS011;15675;52.870;-1.416;2023-04-06T08:46:25;10.10;;;3.22;;
28447;SDS011;15675;52.870;-1.416;2023-04-06T08:48:55;12.77;;;3.13;;
28447;SDS011;15675;52.870;-1.416;2023-04-06T08:51:25;14.82;;;4.32;;
28447;SDS011;15675;52.870;-1.416;2023-04-06T08:53:55;7.10;;;2.75;;
28447;SDS011;15675;52.870;-1.416;2023-04-06T08:56:22;12.07;;;2.75;;
28447;SDS011;15675;52.870;-1.416;2023-04-06T08:58:48;9.35;;;2.40;;
28447;SDS011;15675;52.870;-1.416;2023-04-06T09:01:16;11.00;;;3.60;;
28447;SDS011;15675;52.870;-1.416;2023-04-06T09:03:43;6.47;;;2.38;;
28447;SDS011;15675;52.870;-1.416;2023-04-06T09:06:09;8.07;;;2.08;;
28447;SDS011;15675;52.870;-1.416;2023-04-06T09:08:38;7.25;;;1.98;;
28447;SDS011;15675;52.870;-1.416;2023-04-06T09:11:05;12.13;;;2.30;;
28447;SDS011;15675;52.870;-1.416;2023-04-06T09:13:31;10.48;;;2.38;;
28447;SDS011;15675;52.870;-1.416;2023-04-06T09:16:01;16.88;;;3.08;;
28447;SDS011;15675;52.870;-1.416;2023-04-06T09:18:28;10.27;;;2.42;;
28447;SDS011;15675;52.870;-1.416;2023-04-06T09:20:58;7.22;;;3.13;;
28447;SDS011;15675;52.870;-1.416;2023-04-06T09:23:25;8.27;;;2.08;;
28447;SDS011;15675;52.870;-1.416;2023-04-06T09:25:50;12.73;;;2.30;;
28447;SDS011;15675;52.870;-1.416;2023-04-06T09:28:16;11.85;;;2.30;;
28447;SDS011;15675;52.870;-1.416;2023-04-06T09:30:48;12.05;;;2.28;;
28447;SDS011;15675;52.870;-1.416;2023-04-06T09:33:21;11.88;;;2.75;;
28447;SDS011;15675;52.870;-1.416;2023-04-06T09:35:51;9.60;;;2.42;;
28447;SDS011;15675;52.870;-1.416;2023-04-06T09:38:16;9.90;;;2.53;;
28447;SDS011;15675;52.870;-1.416;2023-04-06T09:40:49;12.13;;;3.05;;
28447;SDS011;15675;52.870;-1.416;2023-04-06T09:45:51;9.90;;;2.35;;
28447;SDS011;15675;52.870;-1.416;2023-04-06T09:48:18;6.97;;;2.00;;
28447;SDS011;15675;52.870;-1.416;2023-04-06T09:50:46;14.05;;;2.50;;
28447;SDS011;15675;52.870;-1.416;2023-04-06T09:53:13;11.75;;;2.45;;
28447;SDS011;15675;52.870;-1.416;2023-04-06T09:55:42;8.18;;;2.50;;
28447;SDS011;15675;52.870;-1.416;2023-04-06T09:58:17;9.63;;;1.98;;
28447;SDS011;15675;52.870;-1.416;2023-04-06T10:01:28;12.60;;;2.05;;
28447;SDS011;15675;52.870;-1.416;2023-04-06T10:03:54;12.65;;;2.63;;
28447;SDS011;15675;52.870;-1.416;2023-04-06T10:06:24;8.10;;;1.90;;
28447;SDS011;15675;52.870;-1.416;2023-04-06T10:08:52;5.90;;;1.65;;
28447;SDS011;15675;52.870;-1.416;2023-04-06T10:11:21;9.88;;;1.70;;
28447;SDS011;15675;52.870;-1.416;2023-04-06T10:13:47;6.78;;;1.60;;
28447;SDS011;15675;52.870;-1.416;2023-04-06T10:16:14;11.30;;;1.88;;
28447;SDS011;15675;52.870;-1.416;2023-04-06T10:18:39;13.30;;;2.17;;
28447;SDS011;15675;52.870;-1.416;2023-04-06T10:21:11;5.63;;;1.50;;
28447;SDS011;15675;52.870;-1.416;2023-04-06T10:23:49;13.15;;;2.40;;
28447;SDS011;15675;52.870;-1.416;2023-04-06T10:26:19;8.13;;;1.55;;
28447;SDS011;15675;52.870;-1.416;2023-04-06T10:28:46;10.27;;;2.08;;
28447;SDS011;15675;52.870;-1.416;2023-04-06T10:31:13;7.13;;;1.65;;
28447;SDS011;15675;52.870;-1.416;2023-04-06T10:33:39;11.07;;;2.72;;
28447;SDS011;15675;52.870;-1.416;2023-04-06T10:36:09;11.25;;;2.67;;
28447;SDS011;15675;52.870;-1.416;2023-04-06T10:38:36;11.38;;;3.63;;
28447;SDS011;15675;52.870;-1.416;2023-04-06T10:41:03;8.23;;;2.53;;
28447;SDS011;15675;52.870;-1.416;2023-04-06T10:43:32;8.65;;;2.17;;
28447;SDS011;15675;52.870;-1.416;2023-04-06T10:46:02;9.98;;;2.53;;
28447;SDS011;15675;52.870;-1.416;2023-04-06T10:48:37;14.93;;;3.47;;
28447;SDS011;15675;52.870;-1.416;2023-04-06T10:53:32;12.35;;;2.25;;
28447;SDS011;15675;52.870;-1.416;2023-04-06T10:55:59;7.40;;;2.33;;
28447;SDS011;15675;52.870;-1.416;2023-04-06T10:58:25;5.93;;;1.95;;
28447;SDS011;15675;52.870;-1.416;2023-04-06T11:00:52;9.68;;;2.17;;
28447;SDS011;15675;52.870;-1.416;2023-04-06T11:03:19;7.45;;;2.45;;
28447;SDS011;15675;52.870;-1.416;2023-04-06T11:05:46;8.43;;;1.88;;
28447;SDS011;15675;52.870;-1.416;2023-04-06T11:08:25;6.30;;;1.60;;
28447;SDS011;15675;52.870;-1.416;2023-04-06T11:16:15;4.55;;;1.65;;
28447;SDS011;15675;52.870;-1.416;2023-04-06T11:21:17;5.57;;;1.55;;
28447;SDS011;15675;52.870;-1.416;2023-04-06T11:23:44;7.05;;;1.77;;
28447;SDS011;15675;52.870;-1.416;2023-04-06T11:26:10;10.80;;;1.52;;
28447;SDS011;15675;52.870;-1.416;2023-04-06T11:28:42;5.18;;;1.52;;
28447;SDS011;15675;52.870;-1.416;2023-04-06T11:31:09;12.40;;;1.83;;
28447;SDS011;15675;52.870;-1.416;2023-04-06T11:33:36;6.95;;;1.42;;
28447;SDS011;15675;52.870;-1.416;2023-04-06T11:36:03;9.52;;;2.03;;
28447;SDS011;15675;52.870;-1.416;2023-04-06T11:38:30;6.90;;;1.55;;
28447;SDS011;15675;52.870;-1.416;2023-04-06T11:40:55;10.02;;;2.17;;
28447;SDS011;15675;52.870;-1.416;2023-04-06T11:43:27;7.53;;;1.88;;
28447;SDS011;15675;52.870;-1.416;2023-04-06T11:45:59;6.45;;;1.30;;
28447;SDS011;15675;52.870;-1.416;2023-04-06T11:48:28;7.15;;;1.90;;
28447;SDS011;15675;52.870;-1.416;2023-04-06T11:50:55;8.82;;;1.73;;
28447;SDS011;15675;52.870;-1.416;2023-04-06T11:53:22;9.00;;;1.35;;
28447;SDS011;15675;52.870;-1.416;2023-04-06T11:55:48;7.18;;;1.80;;
28447;SDS011;15675;52.870;-1.416;2023-04-06T11:58:14;6.55;;;1.30;;
28447;SDS011;15675;52.870;-1.416;2023-04-06T12:00:40;11.00;;;1.77;;
28447;SDS011;15675;52.870;-1.416;2023-04-06T12:03:10;4.20;;;1.50;;
28447;SDS011;15675;52.870;-1.416;2023-04-06T12:05:37;5.50;;;1.23;;
28447;SDS011;15675;52.870;-1.416;2023-04-06T12:08:03;9.13;;;1.50;;
28447;SDS011;15675;52.870;-1.416;2023-04-06T12:10:29;6.32;;;1.45;;
28447;SDS011;15675;52.870;-1.416;2023-04-06T12:12:54;9.95;;;1.60;;
28447;SDS011;15675;52.870;-1.416;2023-04-06T12:15:20;9.75;;;2.17;;
28447;SDS011;15675;52.870;-1.416;2023-04-06T12:17:46;4.18;;;1.17;;
28447;SDS011;15675;52.870;-1.416;2023-04-06T12:20:12;4.93;;;1.25;;
28447;SDS011;15675;52.870;-1.416;2023-04-06T12:22:38;6.20;;;1.13;;
28447;SDS011;15675;52.870;-1.416;2023-04-06T12:25:04;6.93;;;1.10;;
28447;SDS011;15675;52.870;-1.416;2023-04-06T12:27:31;6.22;;;1.02;;
28447;SDS011;15675;52.870;-1.416;2023-04-06T12:29:57;2.97;;;0.65;;
28447;SDS011;15675;52.870;-1.416;2023-04-06T12:32:23;3.67;;;1.00;;
28447;SDS011;15675;52.870;-1.416;2023-04-06T12:34:48;5.50;;;1.15;;
28447;SDS011;15675;52.870;-1.416;2023-04-06T12:37:14;6.30;;;1.00;;
28447;SDS011;15675;52.870;-1.416;2023-04-06T12:39:40;3.60;;;1.00;;
28447;SDS011;15675;52.870;-1.416;2023-04-06T12:42:06;4.03;;;1.10;;
28447;SDS011;15675;52.870;-1.416;2023-04-06T12:44:31;3.33;;;1.13;;
28447;SDS011;15675;52.870;-1.416;2023-04-06T12:46:57;7.60;;;1.33;;
28447;SDS011;15675;52.870;-1.416;2023-04-06T12:49:22;11.18;;;1.33;;
28447;SDS011;15675;52.870;-1.416;2023-04-06T12:51:48;12.30;;;1.67;;
28447;SDS011;15675;52.870;-1.416;2023-04-06T12:54:14;9.25;;;1.60;;
28447;SDS011;15675;52.870;-1.416;2023-04-06T12:56:39;7.00;;;1.70;;
28447;SDS011;15675;52.870;-1.416;2023-04-06T12:59:05;7.97;;;1.85;;
28447;SDS011;15675;52.870;-1.416;2023-04-06T13:01:31;9.23;;;1.67;;
28447;SDS011;15675;52.870;-1.416;2023-04-06T13:03:57;5.13;;;1.50;;
28447;SDS011;15675;52.870;-1.416;2023-04-06T13:06:24;6.57;;;1.58;;
28447;SDS011;15675;52.870;-1.416;2023-04-06T13:08:52;7.57;;;1.50;;
28447;SDS011;15675;52.870;-1.416;2023-04-06T13:11:18;7.05;;;1.70;;
28447;SDS011;15675;52.870;-1.416;2023-04-06T13:13:45;11.10;;;1.75;;
28447;SDS011;15675;52.870;-1.416;2023-04-06T13:16:11;9.88;;;1.98;;
28447;SDS011;15675;52.870;-1.416;2023-04-06T13:18:36;9.38;;;1.70;;
28447;SDS011;15675;52.870;-1.416;2023-04-06T13:21:04;8.95;;;1.58;;
28447;SDS011;15675;52.870;-1.416;2023-04-06T13:23:30;7.82;;;1.25;;
28447;SDS011;15675;52.870;-1.416;2023-04-06T13:25:57;6.32;;;1.17;;
28447;SDS011;15675;52.870;-1.416;2023-04-06T13:28:24;9.73;;;1.42;;
28447;SDS011;15675;52.870;-1.416;2023-04-06T13:30:51;5.18;;;1.20;;
28447;SDS011;15675;52.870;-1.416;2023-04-06T13:33:17;6.72;;;1.23;;
28447;SDS011;15675;52.870;-1.416;2023-04-06T13:35:45;8.25;;;1.25;;
28447;SDS011;15675;52.870;-1.416;2023-04-06T13:38:11;8.85;;;1.80;;
28447;SDS011;15675;52.870;-1.416;2023-04-06T13:40:38;8.30;;;1.77;;
28447;SDS011;15675;52.870;-1.416;2023-04-06T13:43:05;9.95;;;1.77;;
28447;SDS011;15675;52.870;-1.416;2023-04-06T13:45:31;6.80;;;1.40;;
28447;SDS011;15675;52.870;-1.416;2023-04-06T13:47:57;5.47;;;1.20;;
28447;SDS011;15675;52.870;-1.416;2023-04-06T13:50:22;9.70;;;1.40;;
28447;SDS011;15675;52.870;-1.416;2023-04-06T13:52:53;12.88;;;2.63;;
28447;SDS011;15675;52.870;-1.416;2023-04-06T13:55:18;9.20;;;2.03;;
28447;SDS011;15675;52.870;-1.416;2023-04-06T13:57:44;7.55;;;1.75;;
28447;SDS011;15675;52.870;-1.416;2023-04-06T14:00:09;7.88;;;1.92;;
28447;SDS011;15675;52.870;-1.416;2023-04-06T14:02:37;4.25;;;1.40;;
28447;SDS011;15675;52.870;-1.416;2023-04-06T14:05:04;7.43;;;1.48;;
28447;SDS011;15675;52.870;-1.416;2023-04-06T14:07:30;8.18;;;1.67;;
28447;SDS011;15675;52.870;-1.416;2023-04-06T14:09:56;10.02;;;1.45;;
28447;SDS011;15675;52.870;-1.416;2023-04-06T14:12:21;6.05;;;1.90;;
28447;SDS011;15675;52.870;-1.416;2023-04-06T14:14:47;4.85;;;1.38;;
28447;SDS011;15675;52.870;-1.416;2023-04-06T14:17:12;9.68;;;1.20;;
28447;SDS011;15675;52.870;-1.416;2023-04-06T14:19:38;14.55;;;1.70;;
28447;SDS011;15675;52.870;-1.416;2023-04-06T14:22:04;6.85;;;1.52;;
28447;SDS011;15675;52.870;-1.416;2023-04-06T14:24:29;6.70;;;1.98;;
28447;SDS011;15675;52.870;-1.416;2023-04-06T14:26:56;5.50;;;1.35;;